sensor_id;sensor_type;location;lat;lon;timestamp;pressure;altitude;pressure_sealevel;temperature;humidity
9935;BME280;5006;41.828;23.478;2023-02-20T00:00:17;90422.03;;;18.20;39.35
9935;BME280;5006;41.828;23.478;2023-02-20T00:01:25;90434.53;;;17.73;39.94
9935;BME280;5006;41.828;23.478;2023-02-20T00:02:30;90427.94;;;18.02;39.48
9935;BME280;5006;41.828;23.478;2023-02-20T00:03:35;90437.28;;;17.57;39.75
9935;BME280;5006;41.828;23.478;2023-02-20T00:04:40;90432.22;;;18.32;39.10
9935;BME280;5006;41.828;23.478;2023-02-20T00:05:45;90433.72;;;18.33;38.98
9935;BME280;5006;41.828;23.478;2023-02-20T00:06:50;90439.06;;;19.02;37.79
9935;BME280;5006;41.828;23.478;2023-02-20T00:07:57;90440.50;;;18.41;38.64
9935;BME280;5006;41.828;23.478;2023-02-20T00:09:01;90444.78;;;18.67;38.47
9935;BME280;5006;41.828;23.478;2023-02-20T00:10:08;90432.59;;;17.73;39.69
9935;BME280;5006;41.828;23.478;2023-02-20T00:11:13;90439.03;;;18.65;38.41
9935;BME280;5006;41.828;23.478;2023-02-20T00:12:19;90443.06;;;18.73;38.49
9935;BME280;5006;41.828;23.478;2023-02-20T00:13:23;90452.69;;;18.20;39.59
9935;BME280;5006;41.828;23.478;2023-02-20T00:14:28;90453.66;;;17.98;40.27
9935;BME280;5006;41.828;23.478;2023-02-20T00:15:33;90469.19;;;18.26;39.56
9935;BME280;5006;41.828;23.478;2023-02-20T00:16:40;90454.47;;;17.50;41.15
9935;BME280;5006;41.828;23.478;2023-02-20T00:17:45;90471.41;;;17.54;40.64
9935;BME280;5006;41.828;23.478;2023-02-20T00:18:51;90439.66;;;18.56;39.77
9935;BME280;5006;41.828;23.478;2023-02-20T00:19:56;90452.66;;;17.92;40.29
9935;BME280;5006;41.828;23.478;2023-02-20T00:21:04;90438.00;;;18.18;39.99
9935;BME280;5006;41.828;23.478;2023-02-20T00:22:10;90443.16;;;18.69;39.25
9935;BME280;5006;41.828;23.478;2023-02-20T00:23:16;90448.03;;;18.62;39.45
9935;BME280;5006;41.828;23.478;2023-02-20T00:24:21;90442.66;;;18.46;39.55
9935;BME280;5006;41.828;23.478;2023-02-20T00:25:26;90443.72;;;18.07;39.82
9935;BME280;5006;41.828;23.478;2023-02-20T00:26:31;90438.97;;;18.24;40.12
9935;BME280;5006;41.828;23.478;2023-02-20T00:27:36;90439.38;;;18.10;40.12
9935;BME280;5006;41.828;23.478;2023-02-20T00:28:42;90433.31;;;17.90;40.23
9935;BME280;5006;41.828;23.478;2023-02-20T00:29:47;90426.59;;;18.23;40.16
9935;BME280;5006;41.828;23.478;2023-02-20T00:30:52;90419.66;;;17.93;40.38
9935;BME280;5006;41.828;23.478;2023-02-20T00:31:57;90417.03;;;18.18;39.63
9935;BME280;5006;41.828;23.478;2023-02-20T00:33:03;90425.41;;;18.24;39.32
9935;BME280;5006;41.828;23.478;2023-02-20T00:34:08;90428.25;;;18.61;39.27
9935;BME280;5006;41.828;23.478;2023-02-20T00:35:14;90444.22;;;18.02;39.84
9935;BME280;5006;41.828;23.478;2023-02-20T00:36:20;90434.25;;;17.39;41.01
9935;BME280;5006;41.828;23.478;2023-02-20T00:37:26;90453.16;;;17.87;40.54
9935;BME280;5006;41.828;23.478;2023-02-20T00:38:32;90458.22;;;17.56;41.25
9935;BME280;5006;41.828;23.478;2023-02-20T00:39:39;90456.06;;;17.16;41.87
9935;BME280;5006;41.828;23.478;2023-02-20T00:40:44;90459.38;;;17.40;42.01
9935;BME280;5006;41.828;23.478;2023-02-20T00:41:51;90461.94;;;16.60;42.84
9935;BME280;5006;41.828;23.478;2023-02-20T00:42:56;90480.97;;;16.56;42.86
9935;BME280;5006;41.828;23.478;2023-02-20T00:44:02;90458.38;;;16.82;43.11
9935;BME280;5006;41.828;23.478;2023-02-20T00:45:07;90460.88;;;16.34;43.53
9935;BME280;5006;41.828;23.478;2023-02-20T00:46:15;90473.03;;;16.85;42.76
9935;BME280;5006;41.828;23.478;2023-02-20T00:47:20;90491.31;;;16.22;43.46
9935;BME280;5006;41.828;23.478;2023-02-20T00:48:26;90499.00;;;16.63;43.72
9935;BME280;5006;41.828;23.478;2023-02-20T00:49:50;90483.31;;;16.15;44.24
9935;BME280;5006;41.828;23.478;2023-02-20T00:51:00;90481.53;;;16.67;43.65
9935;BME280;5006;41.828;23.478;2023-02-20T00:52:05;90491.72;;;16.21;44.32
9935;BME280;5006;41.828;23.478;2023-02-20T00:53:12;90478.31;;;16.14;44.24
9935;BME280;5006;41.828;23.478;2023-02-20T00:54:18;90490.69;;;16.54;43.95
9935;BME280;5006;41.828;23.478;2023-02-20T00:55:24;90490.13;;;16.23;44.26
9935;BME280;5006;41.828;23.478;2023-02-20T00:56:29;90484.84;;;15.51;45.58
9935;BME280;5006;41.828;23.478;2023-02-20T00:57:34;90477.38;;;15.81;44.63
9935;BME280;5006;41.828;23.478;2023-02-20T00:58:40;90492.44;;;16.44;44.00
9935;BME280;5006;41.828;23.478;2023-02-20T00:59:45;90488.66;;;15.76;44.80
9935;BME280;5006;41.828;23.478;2023-02-20T01:00:50;90488.09;;;15.65;45.17
9935;BME280;5006;41.828;23.478;2023-02-20T01:02:14;90468.94;;;15.33;46.05
9935;BME280;5006;41.828;23.478;2023-02-20T01:03:20;90465.00;;;15.61;45.35
9935;BME280;5006;41.828;23.478;2023-02-20T01:04:24;90490.84;;;15.62;45.23
9935;BME280;5006;41.828;23.478;2023-02-20T01:05:30;90486.84;;;15.70;45.11
9935;BME280;5006;41.828;23.478;2023-02-20T01:06:36;90482.41;;;16.02;44.49
9935;BME280;5006;41.828;23.478;2023-02-20T01:07:42;90474.81;;;15.51;45.64
9935;BME280;5006;41.828;23.478;2023-02-20T01:08:46;90483.09;;;15.41;45.55
9935;BME280;5006;41.828;23.478;2023-02-20T01:09:53;90473.00;;;15.68;45.22
9935;BME280;5006;41.828;23.478;2023-02-20T01:10:58;90485.63;;;15.51;45.42
9935;BME280;5006;41.828;23.478;2023-02-20T01:12:04;90465.59;;;15.91;44.57
9935;BME280;5006;41.828;23.478;2023-02-20T01:13:10;90468.88;;;16.02;44.14
9935;BME280;5006;41.828;23.478;2023-02-20T01:14:15;90468.75;;;16.09;44.29
9935;BME280;5006;41.828;23.478;2023-02-20T01:15:21;90462.22;;;15.87;44.54
9935;BME280;5006;41.828;23.478;2023-02-20T01:16:27;90457.47;;;15.72;44.20
9935;BME280;5006;41.828;23.478;2023-02-20T01:17:33;90471.38;;;15.70;44.47
9935;BME280;5006;41.828;23.478;2023-02-20T01:18:38;90453.38;;;15.83;44.38
9935;BME280;5006;41.828;23.478;2023-02-20T01:19:43;90458.13;;;15.99;43.97
9935;BME280;5006;41.828;23.478;2023-02-20T01:20:48;90458.88;;;15.80;44.11
9935;BME280;5006;41.828;23.478;2023-02-20T01:21:54;90442.44;;;15.90;43.82
9935;BME280;5006;41.828;23.478;2023-02-20T01:22:58;90455.66;;;16.47;42.89
9935;BME280;5006;41.828;23.478;2023-02-20T01:24:05;90455.56;;;16.11;43.09
9935;BME280;5006;41.828;23.478;2023-02-20T01:25:12;90443.03;;;16.76;42.16
9935;BME280;5006;41.828;23.478;2023-02-20T01:26:17;90455.13;;;16.32;42.73
9935;BME280;5006;41.828;23.478;2023-02-20T01:27:22;90446.72;;;17.17;41.51
9935;BME280;5006;41.828;23.478;2023-02-20T01:28:28;90449.13;;;16.44;42.39
9935;BME280;5006;41.828;23.478;2023-02-20T01:29:32;90446.47;;;16.60;41.98
9935;BME280;5006;41.828;23.478;2023-02-20T01:30:38;90446.13;;;17.10;41.50
9935;BME280;5006;41.828;23.478;2023-02-20T01:31:47;90445.69;;;16.95;41.44
9935;BME280;5006;41.828;23.478;2023-02-20T01:32:53;90452.53;;;16.48;42.29
9935;BME280;5006;41.828;23.478;2023-02-20T01:33:58;90439.22;;;16.34;41.92
9935;BME280;5006;41.828;23.478;2023-02-20T01:35:04;90439.06;;;16.45;41.96
9935;BME280;5006;41.828;23.478;2023-02-20T01:36:11;90442.78;;;16.31;41.99
9935;BME280;5006;41.828;23.478;2023-02-20T01:37:17;90443.59;;;16.67;41.63
9935;BME280;5006;41.828;23.478;2023-02-20T01:38:23;90439.66;;;16.72;40.80
9935;BME280;5006;41.828;23.478;2023-02-20T01:39:29;90452.94;;;16.27;41.62
9935;BME280;5006;41.828;23.478;2023-02-20T01:40:37;90438.34;;;16.60;41.53
9935;BME280;5006;41.828;23.478;2023-02-20T01:41:41;90435.56;;;16.64;41.01
9935;BME280;5006;41.828;23.478;2023-02-20T01:42:47;90448.81;;;16.19;42.20
9935;BME280;5006;41.828;23.478;2023-02-20T01:43:55;90448.97;;;16.12;42.29
9935;BME280;5006;41.828;23.478;2023-02-20T01:45:18;90445.72;;;16.01;43.01
9935;BME280;5006;41.828;23.478;2023-02-20T01:46:47;90451.44;;;15.84;43.65
9935;BME280;5006;41.828;23.478;2023-02-20T01:47:55;90452.91;;;15.46;44.88
9935;BME280;5006;41.828;23.478;2023-02-20T01:49:02;90457.97;;;15.86;43.93
9935;BME280;5006;41.828;23.478;2023-02-20T01:50:09;90461.00;;;15.46;44.73
9935;BME280;5006;41.828;23.478;2023-02-20T01:51:14;90460.66;;;15.67;45.23
9935;BME280;5006;41.828;23.478;2023-02-20T01:52:23;90459.19;;;15.62;44.99
9935;BME280;5006;41.828;23.478;2023-02-20T01:53:29;90465.72;;;15.42;45.56
9935;BME280;5006;41.828;23.478;2023-02-20T01:54:37;90443.31;;;15.41;45.67
9935;BME280;5006;41.828;23.478;2023-02-20T01:55:48;90471.00;;;15.00;46.57
9935;BME280;5006;41.828;23.478;2023-02-20T01:56:57;90445.50;;;15.01;46.46
9935;BME280;5006;41.828;23.478;2023-02-20T01:58:10;90455.84;;;15.06;46.50
9935;BME280;5006;41.828;23.478;2023-02-20T01:59:18;90463.25;;;14.75;46.21
9935;BME280;5006;41.828;23.478;2023-02-20T02:00:25;90443.50;;;15.54;45.56
9935;BME280;5006;41.828;23.478;2023-02-20T02:01:34;90443.69;;;14.94;46.25
9935;BME280;5006;41.828;23.478;2023-02-20T02:02:59;90447.72;;;15.32;45.44
9935;BME280;5006;41.828;23.478;2023-02-20T02:04:08;90460.47;;;15.31;45.25
9935;BME280;5006;41.828;23.478;2023-02-20T02:05:15;90472.28;;;15.14;45.47
9935;BME280;5006;41.828;23.478;2023-02-20T02:06:22;90455.59;;;15.46;44.60
9935;BME280;5006;41.828;23.478;2023-02-20T02:07:29;90469.66;;;15.37;45.20
9935;BME280;5006;41.828;23.478;2023-02-20T02:08:36;90459.06;;;15.46;44.94
9935;BME280;5006;41.828;23.478;2023-02-20T02:09:48;90468.63;;;15.51;44.90
9935;BME280;5006;41.828;23.478;2023-02-20T02:11:00;90470.25;;;15.48;44.82
9935;BME280;5006;41.828;23.478;2023-02-20T02:12:06;90460.13;;;15.29;44.53
9935;BME280;5006;41.828;23.478;2023-02-20T02:13:12;90469.13;;;15.46;44.35
9935;BME280;5006;41.828;23.478;2023-02-20T02:14:18;90461.00;;;15.46;44.18
9935;BME280;5006;41.828;23.478;2023-02-20T02:15:24;90472.63;;;15.66;43.78
9935;BME280;5006;41.828;23.478;2023-02-20T02:16:36;90480.81;;;16.05;43.74
9935;BME280;5006;41.828;23.478;2023-02-20T02:19:54;90488.16;;;15.13;44.52
9935;BME280;5006;41.828;23.478;2023-02-20T02:21:58;90497.38;;;15.64;43.93
9935;BME280;5006;41.828;23.478;2023-02-20T02:23:47;90497.81;;;15.82;43.96
9935;BME280;5006;41.828;23.478;2023-02-20T02:25:20;90487.84;;;15.79;44.70
9935;BME280;5006;41.828;23.478;2023-02-20T02:27:04;90499.72;;;15.85;45.18
9935;BME280;5006;41.828;23.478;2023-02-20T02:30:23;90528.06;;;15.02;45.30
9935;BME280;5006;41.828;23.478;2023-02-20T02:32:00;90520.22;;;16.06;43.93
9935;BME280;5006;41.828;23.478;2023-02-20T02:33:33;90511.59;;;15.68;44.20
9935;BME280;5006;41.828;23.478;2023-02-20T02:35:13;90517.22;;;16.00;44.57
9935;BME280;5006;41.828;23.478;2023-02-20T02:36:53;90506.41;;;15.77;44.64
9935;BME280;5006;41.828;23.478;2023-02-20T02:38:10;90530.38;;;15.29;44.59
9935;BME280;5006;41.828;23.478;2023-02-20T02:39:24;90539.06;;;15.14;45.39
9935;BME280;5006;41.828;23.478;2023-02-20T02:40:39;90531.84;;;15.08;45.72
9935;BME280;5006;41.828;23.478;2023-02-20T02:41:49;90524.00;;;16.08;44.17
9935;BME280;5006;41.828;23.478;2023-02-20T02:43:04;90538.78;;;15.35;45.63
9935;BME280;5006;41.828;23.478;2023-02-20T02:44:15;90529.50;;;15.36;45.21
9935;BME280;5006;41.828;23.478;2023-02-20T02:45:27;90539.94;;;15.08;45.53
9935;BME280;5006;41.828;23.478;2023-02-20T02:46:38;90530.28;;;15.82;45.17
9935;BME280;5006;41.828;23.478;2023-02-20T02:47:48;90528.06;;;15.28;45.81
9935;BME280;5006;41.828;23.478;2023-02-20T02:49:00;90520.28;;;15.79;44.75
9935;BME280;5006;41.828;23.478;2023-02-20T02:50:12;90528.59;;;15.92;44.82
9935;BME280;5006;41.828;23.478;2023-02-20T02:51:22;90526.63;;;15.69;44.61
9935;BME280;5006;41.828;23.478;2023-02-20T02:52:32;90530.88;;;15.70;44.45
9935;BME280;5006;41.828;23.478;2023-02-20T02:54:05;90515.59;;;15.60;44.42
9935;BME280;5006;41.828;23.478;2023-02-20T02:55:12;90534.03;;;15.65;44.19
9935;BME280;5006;41.828;23.478;2023-02-20T02:56:17;90531.88;;;16.03;43.59
9935;BME280;5006;41.828;23.478;2023-02-20T02:57:26;90538.53;;;15.75;44.07
9935;BME280;5006;41.828;23.478;2023-02-20T02:58:31;90537.81;;;15.18;44.05
9935;BME280;5006;41.828;23.478;2023-02-20T02:59:37;90531.16;;;15.76;43.23
9935;BME280;5006;41.828;23.478;2023-02-20T03:00:44;90537.88;;;15.68;43.04
9935;BME280;5006;41.828;23.478;2023-02-20T03:01:55;90537.94;;;15.64;42.78
9935;BME280;5006;41.828;23.478;2023-02-20T03:03:05;90544.38;;;15.93;42.48
9935;BME280;5006;41.828;23.478;2023-02-20T03:04:12;90548.78;;;16.30;41.82
9935;BME280;5006;41.828;23.478;2023-02-20T03:05:22;90542.63;;;15.83;43.00
9935;BME280;5006;41.828;23.478;2023-02-20T03:06:31;90549.44;;;15.45;43.74
9935;BME280;5006;41.828;23.478;2023-02-20T03:07:41;90545.94;;;15.71;43.29
9935;BME280;5006;41.828;23.478;2023-02-20T03:08:52;90544.66;;;15.30;43.97
9935;BME280;5006;41.828;23.478;2023-02-20T03:10:03;90556.31;;;15.23;44.70
9935;BME280;5006;41.828;23.478;2023-02-20T03:11:14;90554.03;;;15.94;43.59
9935;BME280;5006;41.828;23.478;2023-02-20T03:12:21;90554.69;;;16.21;43.20
9935;BME280;5006;41.828;23.478;2023-02-20T03:13:31;90552.84;;;15.95;43.82
9935;BME280;5006;41.828;23.478;2023-02-20T03:14:59;90554.84;;;15.45;44.44
9935;BME280;5006;41.828;23.478;2023-02-20T03:16:28;90563.91;;;15.81;43.60
9935;BME280;5006;41.828;23.478;2023-02-20T03:17:39;90552.38;;;16.00;43.12
9935;BME280;5006;41.828;23.478;2023-02-20T03:18:47;90562.47;;;16.19;43.01
9935;BME280;5006;41.828;23.478;2023-02-20T03:19:56;90568.09;;;15.86;43.10
9935;BME280;5006;41.828;23.478;2023-02-20T03:21:08;90558.94;;;16.45;42.36
9935;BME280;5006;41.828;23.478;2023-02-20T03:22:19;90561.66;;;16.22;42.38
9935;BME280;5006;41.828;23.478;2023-02-20T03:23:31;90561.94;;;15.85;42.84
9935;BME280;5006;41.828;23.478;2023-02-20T03:24:40;90557.41;;;16.21;42.30
9935;BME280;5006;41.828;23.478;2023-02-20T03:26:02;90561.63;;;16.65;41.10
9935;BME280;5006;41.828;23.478;2023-02-20T03:27:09;90553.13;;;16.24;41.26
9935;BME280;5006;41.828;23.478;2023-02-20T03:28:18;90553.16;;;16.82;40.27
9935;BME280;5006;41.828;23.478;2023-02-20T03:29:31;90560.13;;;17.38;39.11
9935;BME280;5006;41.828;23.478;2023-02-20T03:30:40;90566.28;;;17.90;38.08
9935;BME280;5006;41.828;23.478;2023-02-20T03:31:53;90567.44;;;17.41;38.49
9935;BME280;5006;41.828;23.478;2023-02-20T03:33:22;90567.38;;;17.25;38.71
9935;BME280;5006;41.828;23.478;2023-02-20T03:34:48;90573.78;;;17.50;38.31
9935;BME280;5006;41.828;23.478;2023-02-20T03:36:16;90571.88;;;17.32;38.74
9935;BME280;5006;41.828;23.478;2023-02-20T03:37:44;90582.44;;;17.46;38.68
9935;BME280;5006;41.828;23.478;2023-02-20T03:39:20;90585.56;;;17.44;38.55
9935;BME280;5006;41.828;23.478;2023-02-20T03:40:48;90578.31;;;16.83;40.64
9935;BME280;5006;41.828;23.478;2023-02-20T03:42:14;90581.88;;;15.68;42.51
9935;BME280;5006;41.828;23.478;2023-02-20T03:43:46;90588.84;;;15.92;43.33
9935;BME280;5006;41.828;23.478;2023-02-20T03:44:54;90581.56;;;16.12;43.00
9935;BME280;5006;41.828;23.478;2023-02-20T03:46:02;90581.72;;;16.02;43.32
9935;BME280;5006;41.828;23.478;2023-02-20T03:47:13;90587.94;;;15.76;44.06
9935;BME280;5006;41.828;23.478;2023-02-20T03:48:21;90580.25;;;15.74;44.30
9935;BME280;5006;41.828;23.478;2023-02-20T03:49:31;90585.72;;;15.18;45.83
9935;BME280;5006;41.828;23.478;2023-02-20T03:50:39;90604.38;;;15.39;45.88
9935;BME280;5006;41.828;23.478;2023-02-20T03:51:46;90612.19;;;15.56;45.98
9935;BME280;5006;41.828;23.478;2023-02-20T03:53:01;90601.25;;;15.67;45.81
9935;BME280;5006;41.828;23.478;2023-02-20T03:54:07;90612.31;;;15.49;46.62
9935;BME280;5006;41.828;23.478;2023-02-20T03:55:16;90612.81;;;15.11;46.40
9935;BME280;5006;41.828;23.478;2023-02-20T03:56:24;90600.78;;;15.15;46.63
9935;BME280;5006;41.828;23.478;2023-02-20T03:57:33;90616.38;;;15.05;46.63
9935;BME280;5006;41.828;23.478;2023-02-20T03:58:43;90598.47;;;15.70;46.04
9935;BME280;5006;41.828;23.478;2023-02-20T03:59:53;90589.78;;;15.03;47.26
9935;BME280;5006;41.828;23.478;2023-02-20T04:01:01;90615.72;;;14.94;47.23
9935;BME280;5006;41.828;23.478;2023-02-20T04:02:16;90602.22;;;14.94;47.69
9935;BME280;5006;41.828;23.478;2023-02-20T04:03:26;90599.69;;;14.50;48.51
9935;BME280;5006;41.828;23.478;2023-02-20T04:04:40;90596.69;;;14.74;47.92
9935;BME280;5006;41.828;23.478;2023-02-20T04:05:50;90599.75;;;15.06;47.17
9935;BME280;5006;41.828;23.478;2023-02-20T04:07:01;90580.50;;;15.60;46.08
9935;BME280;5006;41.828;23.478;2023-02-20T04:08:13;90600.78;;;15.15;45.88
9935;BME280;5006;41.828;23.478;2023-02-20T04:09:22;90599.91;;;14.96;46.04
9935;BME280;5006;41.828;23.478;2023-02-20T04:10:34;90608.44;;;14.91;45.68
9935;BME280;5006;41.828;23.478;2023-02-20T04:11:42;90583.63;;;14.99;45.44
9935;BME280;5006;41.828;23.478;2023-02-20T04:12:50;90599.44;;;14.71;45.54
9935;BME280;5006;41.828;23.478;2023-02-20T04:13:56;90586.38;;;14.66;45.14
9935;BME280;5006;41.828;23.478;2023-02-20T04:15:04;90577.88;;;13.97;45.26
9935;BME280;5006;41.828;23.478;2023-02-20T04:16:10;90583.41;;;14.90;44.35
9935;BME280;5006;41.828;23.478;2023-02-20T04:17:20;90619.66;;;14.56;44.41
9935;BME280;5006;41.828;23.478;2023-02-20T04:18:44;90573.34;;;15.20;43.04
9935;BME280;5006;41.828;23.478;2023-02-20T04:19:50;90589.47;;;14.98;43.33
9935;BME280;5006;41.828;23.478;2023-02-20T04:20:56;90587.31;;;15.12;43.08
9935;BME280;5006;41.828;23.478;2023-02-20T04:22:17;90589.25;;;15.41;42.38
9935;BME280;5006;41.828;23.478;2023-02-20T04:23:26;90594.53;;;15.22;42.86
9935;BME280;5006;41.828;23.478;2023-02-20T04:24:37;90592.28;;;15.17;42.34
9935;BME280;5006;41.828;23.478;2023-02-20T04:25:50;90605.81;;;15.43;42.11
9935;BME280;5006;41.828;23.478;2023-02-20T04:26:57;90595.38;;;15.45;42.04
9935;BME280;5006;41.828;23.478;2023-02-20T04:28:03;90596.84;;;15.76;41.44
9935;BME280;5006;41.828;23.478;2023-02-20T04:29:19;90605.63;;;14.68;42.44
9935;BME280;5006;41.828;23.478;2023-02-20T04:30:23;90575.16;;;15.01;41.89
9935;BME280;5006;41.828;23.478;2023-02-20T04:31:29;90564.00;;;14.35;42.87
9935;BME280;5006;41.828;23.478;2023-02-20T04:32:34;90589.53;;;14.61;42.50
9935;BME280;5006;41.828;23.478;2023-02-20T04:33:40;90591.75;;;14.99;42.14
9935;BME280;5006;41.828;23.478;2023-02-20T04:34:53;90611.69;;;15.38;41.73
9935;BME280;5006;41.828;23.478;2023-02-20T04:35:59;90610.72;;;15.22;41.00
9935;BME280;5006;41.828;23.478;2023-02-20T04:37:07;90608.63;;;15.07;41.10
9935;BME280;5006;41.828;23.478;2023-02-20T04:38:13;90631.16;;;14.97;41.39
9935;BME280;5006;41.828;23.478;2023-02-20T04:39:18;90606.44;;;15.54;40.65
9935;BME280;5006;41.828;23.478;2023-02-20T04:40:25;90604.50;;;15.25;41.19
9935;BME280;5006;41.828;23.478;2023-02-20T04:41:32;90610.53;;;15.39;41.44
9935;BME280;5006;41.828;23.478;2023-02-20T04:42:38;90618.22;;;14.81;42.27
9935;BME280;5006;41.828;23.478;2023-02-20T04:43:43;90630.66;;;15.35;41.68
9935;BME280;5006;41.828;23.478;2023-02-20T04:44:48;90629.66;;;15.22;41.71
9935;BME280;5006;41.828;23.478;2023-02-20T04:45:53;90626.50;;;15.27;41.34
9935;BME280;5006;41.828;23.478;2023-02-20T04:47:03;90629.50;;;14.73;41.12
9935;BME280;5006;41.828;23.478;2023-02-20T04:48:09;90625.22;;;16.37;38.94
9935;BME280;5006;41.828;23.478;2023-02-20T04:49:15;90641.06;;;15.36;40.46
9935;BME280;5006;41.828;23.478;2023-02-20T04:50:30;90632.22;;;15.03;40.49
9935;BME280;5006;41.828;23.478;2023-02-20T04:51:34;90649.22;;;15.33;40.44
9935;BME280;5006;41.828;23.478;2023-02-20T04:52:40;90638.16;;;14.91;40.79
9935;BME280;5006;41.828;23.478;2023-02-20T04:53:45;90643.84;;;15.00;40.95
9935;BME280;5006;41.828;23.478;2023-02-20T04:54:51;90644.41;;;14.84;41.19
9935;BME280;5006;41.828;23.478;2023-02-20T04:55:56;90643.25;;;14.48;41.36
9935;BME280;5006;41.828;23.478;2023-02-20T04:57:05;90640.72;;;14.68;41.24
9935;BME280;5006;41.828;23.478;2023-02-20T04:58:09;90642.66;;;15.01;40.90
9935;BME280;5006;41.828;23.478;2023-02-20T04:59:28;90644.56;;;14.70;41.07
9935;BME280;5006;41.828;23.478;2023-02-20T05:00:33;90629.72;;;14.52;41.06
9935;BME280;5006;41.828;23.478;2023-02-20T05:01:38;90630.31;;;13.89;42.68
9935;BME280;5006;41.828;23.478;2023-02-20T05:02:43;90675.06;;;14.67;41.05
9935;BME280;5006;41.828;23.478;2023-02-20T05:03:48;90667.88;;;14.54;41.48
9935;BME280;5006;41.828;23.478;2023-02-20T05:04:53;90646.00;;;15.41;40.42
9935;BME280;5006;41.828;23.478;2023-02-20T05:05:58;90651.91;;;15.33;40.51
9935;BME280;5006;41.828;23.478;2023-02-20T05:07:04;90647.69;;;14.32;42.00
9935;BME280;5006;41.828;23.478;2023-02-20T05:08:08;90673.09;;;15.05;41.31
9935;BME280;5006;41.828;23.478;2023-02-20T05:09:14;90664.84;;;15.48;40.54
9935;BME280;5006;41.828;23.478;2023-02-20T05:10:20;90654.09;;;14.82;41.68
9935;BME280;5006;41.828;23.478;2023-02-20T05:11:26;90644.25;;;14.65;41.60
9935;BME280;5006;41.828;23.478;2023-02-20T05:12:32;90692.25;;;14.84;40.85
9935;BME280;5006;41.828;23.478;2023-02-20T05:13:38;90657.25;;;14.73;41.96
9935;BME280;5006;41.828;23.478;2023-02-20T05:14:44;90655.13;;;14.58;42.02
9935;BME280;5006;41.828;23.478;2023-02-20T05:15:49;90647.41;;;14.16;42.49
9935;BME280;5006;41.828;23.478;2023-02-20T05:16:55;90641.81;;;15.07;41.04
9935;BME280;5006;41.828;23.478;2023-02-20T05:18:00;90642.53;;;14.78;41.36
9935;BME280;5006;41.828;23.478;2023-02-20T05:19:06;90648.84;;;15.01;41.50
9935;BME280;5006;41.828;23.478;2023-02-20T05:20:12;90648.09;;;14.27;42.45
9935;BME280;5006;41.828;23.478;2023-02-20T05:21:18;90649.91;;;15.07;41.51
9935;BME280;5006;41.828;23.478;2023-02-20T05:22:41;90657.41;;;14.59;42.30
9935;BME280;5006;41.828;23.478;2023-02-20T05:23:46;90646.25;;;14.17;43.15
9935;BME280;5006;41.828;23.478;2023-02-20T05:24:51;90659.09;;;14.46;42.63
9935;BME280;5006;41.828;23.478;2023-02-20T05:25:56;90656.84;;;14.75;42.54
9935;BME280;5006;41.828;23.478;2023-02-20T05:27:01;90670.91;;;14.93;42.04
9935;BME280;5006;41.828;23.478;2023-02-20T05:28:08;90650.00;;;14.67;42.37
9935;BME280;5006;41.828;23.478;2023-02-20T05:29:13;90662.84;;;14.15;42.74
9935;BME280;5006;41.828;23.478;2023-02-20T05:30:18;90666.28;;;14.19;42.85
9935;BME280;5006;41.828;23.478;2023-02-20T05:31:23;90677.94;;;14.06;42.86
9935;BME280;5006;41.828;23.478;2023-02-20T05:32:29;90692.75;;;14.35;42.44
9935;BME280;5006;41.828;23.478;2023-02-20T05:33:35;90661.19;;;14.69;41.86
9935;BME280;5006;41.828;23.478;2023-02-20T05:34:40;90667.50;;;13.60;44.07
9935;BME280;5006;41.828;23.478;2023-02-20T05:35:47;90663.78;;;13.95;43.67
9935;BME280;5006;41.828;23.478;2023-02-20T05:36:52;90699.19;;;13.97;44.11
9935;BME280;5006;41.828;23.478;2023-02-20T05:38:00;90692.94;;;13.56;44.66
9935;BME280;5006;41.828;23.478;2023-02-20T05:39:05;90681.63;;;14.29;43.84
9935;BME280;5006;41.828;23.478;2023-02-20T05:40:11;90673.75;;;14.01;43.57
9935;BME280;5006;41.828;23.478;2023-02-20T05:41:16;90673.81;;;13.91;44.79
9935;BME280;5006;41.828;23.478;2023-02-20T05:42:22;90662.78;;;13.71;44.40
9935;BME280;5006;41.828;23.478;2023-02-20T05:43:28;90662.19;;;13.46;45.03
9935;BME280;5006;41.828;23.478;2023-02-20T05:44:34;90683.53;;;13.78;44.37
9935;BME280;5006;41.828;23.478;2023-02-20T05:45:38;90663.59;;;14.16;44.06
9935;BME280;5006;41.828;23.478;2023-02-20T05:46:44;90675.09;;;14.23;44.03
9935;BME280;5006;41.828;23.478;2023-02-20T05:47:49;90686.50;;;13.94;44.12
9935;BME280;5006;41.828;23.478;2023-02-20T05:48:55;90668.72;;;14.00;44.19
9935;BME280;5006;41.828;23.478;2023-02-20T05:49:59;90668.00;;;14.40;43.38
9935;BME280;5006;41.828;23.478;2023-02-20T05:51:05;90680.56;;;14.20;42.96
9935;BME280;5006;41.828;23.478;2023-02-20T05:52:11;90702.50;;;14.22;43.33
9935;BME280;5006;41.828;23.478;2023-02-20T05:53:16;90684.13;;;14.50;42.83
9935;BME280;5006;41.828;23.478;2023-02-20T05:54:22;90706.00;;;14.19;43.52
9935;BME280;5006;41.828;23.478;2023-02-20T05:55:28;90689.91;;;15.49;41.75
9935;BME280;5006;41.828;23.478;2023-02-20T05:56:34;90690.03;;;13.87;43.50
9935;BME280;5006;41.828;23.478;2023-02-20T05:57:40;90717.56;;;14.60;42.55
9935;BME280;5006;41.828;23.478;2023-02-20T05:58:47;90723.53;;;14.78;41.81
9935;BME280;5006;41.828;23.478;2023-02-20T05:59:52;90705.44;;;13.87;43.60
9935;BME280;5006;41.828;23.478;2023-02-20T06:00:58;90682.56;;;14.49;42.69
9935;BME280;5006;41.828;23.478;2023-02-20T06:02:02;90721.94;;;14.47;42.27
9935;BME280;5006;41.828;23.478;2023-02-20T06:03:08;90704.53;;;14.04;43.50
9935;BME280;5006;41.828;23.478;2023-02-20T06:04:13;90698.75;;;14.02;43.44
9935;BME280;5006;41.828;23.478;2023-02-20T06:05:19;90689.28;;;13.83;44.08
9935;BME280;5006;41.828;23.478;2023-02-20T06:06:31;90717.34;;;14.44;43.26
9935;BME280;5006;41.828;23.478;2023-02-20T06:07:36;90679.47;;;14.07;43.39
9935;BME280;5006;41.828;23.478;2023-02-20T06:08:41;90700.47;;;14.33;43.30
9935;BME280;5006;41.828;23.478;2023-02-20T06:09:46;90705.75;;;14.43;43.24
9935;BME280;5006;41.828;23.478;2023-02-20T06:10:53;90705.97;;;13.68;44.87
9935;BME280;5006;41.828;23.478;2023-02-20T06:11:57;90704.63;;;14.41;43.89
9935;BME280;5006;41.828;23.478;2023-02-20T06:13:03;90704.91;;;14.06;43.99
9935;BME280;5006;41.828;23.478;2023-02-20T06:14:10;90726.41;;;13.58;45.01
9935;BME280;5006;41.828;23.478;2023-02-20T06:15:16;90691.44;;;14.02;43.80